createdAt,value
2023-04-11T00:00:54.215Z,7.93
2023-04-11T00:03:21.177Z,7.67
2023-04-11T00:05:48.099Z,8.03
2023-04-11T00:08:15.902Z,7.50
2023-04-11T00:10:44.908Z,9.07
2023-04-11T00:13:12.286Z,11.77
2023-04-11T00:15:39.561Z,9.30
2023-04-11T00:18:07.347Z,7.87
2023-04-11T00:20:34.564Z,8.67
2023-04-11T00:23:01.432Z,9.27
2023-04-11T00:25:30.299Z,8.03
2023-04-11T00:27:57.317Z,8.70
2023-04-11T00:30:24.260Z,7.67
2023-04-11T00:32:51.244Z,7.93
2023-04-11T00:35:18.090Z,8.63
2023-04-11T00:37:45.694Z,8.67
2023-04-11T00:40:17.860Z,8.20
2023-04-11T00:42:44.623Z,7.87
2023-04-11T00:45:11.898Z,8.67
2023-04-11T00:47:39.020Z,8.07
2023-04-11T00:50:06.626Z,7.77
2023-04-11T00:52:34.528Z,9.30
2023-04-11T00:55:07.212Z,8.73
2023-04-11T00:57:34.520Z,7.97
2023-04-11T01:00:03.840Z,7.63
2023-04-11T01:02:30.914Z,8.80
2023-04-11T01:04:57.934Z,9.60
2023-04-11T01:07:25.163Z,10.60
2023-04-11T01:09:53.524Z,9.40
2023-04-11T01:12:22.052Z,10.73
2023-04-11T01:14:49.444Z,9.97
2023-04-11T01:17:16.455Z,10.30
2023-04-11T01:19:43.413Z,9.83
2023-04-11T01:22:13.116Z,9.07
2023-04-11T01:24:39.832Z,10.83
2023-04-11T01:27:06.620Z,8.70
2023-04-11T01:29:33.359Z,8.40
2023-04-11T01:32:00.135Z,8.07
2023-04-11T01:34:28.658Z,9.07
2023-04-11T01:36:55.952Z,9.07
2023-04-11T01:39:22.754Z,8.73
2023-04-11T01:41:50.982Z,9.23
2023-04-11T01:44:19.621Z,8.53
2023-04-11T01:46:47.325Z,9.10
2023-04-11T01:49:15.798Z,10.80
2023-04-11T01:51:42.711Z,8.50
2023-04-11T01:54:09.634Z,9.17
2023-04-11T01:56:36.586Z,9.40
2023-04-11T01:59:03.370Z,9.07
2023-04-11T02:01:30.119Z,9.43
2023-04-11T02:03:57.068Z,8.67
2023-04-11T02:06:23.886Z,8.73
2023-04-11T02:08:50.999Z,10.77
2023-04-11T02:11:17.815Z,8.87
2023-04-11T02:13:46.189Z,9.10
2023-04-11T02:16:18.410Z,9.70
2023-04-11T02:18:46.476Z,10.70
2023-04-11T02:21:13.385Z,9.03
2023-04-11T02:23:40.135Z,11.57
2023-04-11T02:26:07.373Z,9.07
2023-04-11T02:28:34.306Z,9.27
2023-04-11T02:31:01.067Z,8.53
2023-04-11T02:33:27.910Z,8.80
2023-04-11T02:35:54.983Z,9.57
2023-04-11T02:38:21.810Z,9.23
2023-04-11T02:40:48.692Z,8.70
2023-04-11T02:43:16.485Z,10.97
2023-04-11T02:45:43.323Z,9.13
2023-04-11T02:48:10.081Z,9.10
2023-04-11T02:50:36.853Z,8.97
2023-04-11T02:53:03.561Z,9.47
2023-04-11T02:55:30.300Z,10.17
2023-04-11T02:57:57.068Z,10.43
2023-04-11T03:00:23.781Z,11.60
2023-04-11T03:02:50.681Z,10.07
2023-04-11T03:05:17.526Z,10.03
2023-04-11T03:07:44.546Z,10.70
2023-04-11T03:10:11.300Z,11.20
2023-04-11T03:12:38.413Z,11.50
2023-04-11T03:15:05.566Z,10.30
2023-04-11T03:17:34.255Z,11.50
2023-04-11T03:20:01.202Z,11.20
2023-04-11T03:22:28.002Z,12.10
2023-04-11T03:24:54.711Z,10.13
2023-04-11T03:27:21.388Z,10.70
2023-04-11T03:29:48.415Z,10.13
2023-04-11T03:32:15.181Z,9.77
2023-04-11T03:34:41.904Z,9.80
2023-04-11T03:37:08.623Z,13.90
2023-04-11T03:39:35.653Z,9.67
2023-04-11T03:42:02.587Z,10.93
2023-04-11T03:44:29.269Z,10.40
2023-04-11T03:46:56.071Z,11.03
2023-04-11T03:49:22.848Z,10.50
2023-04-11T03:51:49.550Z,11.63
2023-04-11T03:54:16.357Z,12.23
2023-04-11T03:56:43.244Z,10.43
2023-04-11T03:59:09.965Z,14.47
2023-04-11T04:01:38.273Z,10.83
2023-04-11T04:04:08.065Z,11.83
2023-04-11T04:06:36.066Z,11.60
2023-04-11T04:09:04.268Z,12.43
2023-04-11T04:11:31.095Z,13.77
2023-04-11T04:13:58.162Z,12.57
2023-04-11T04:16:25.257Z,11.93
2023-04-11T04:18:52.005Z,11.50
2023-04-11T04:21:18.815Z,12.90
2023-04-11T04:23:47.815Z,14.73
2023-04-11T04:26:17.859Z,12.63
2023-04-11T04:28:48.094Z,9.80
2023-04-11T04:31:15.988Z,12.33
2023-04-11T04:33:45.663Z,12.57
2023-04-11T04:36:12.742Z,11.17
2023-04-11T04:38:42.375Z,10.20
2023-04-11T04:41:15.794Z,11.23
2023-04-11T04:43:45.613Z,12.43
2023-04-11T04:46:12.367Z,14.93
2023-04-11T04:48:39.078Z,13.87
2023-04-11T04:51:08.209Z,11.00
2023-04-11T04:53:39.085Z,10.77
2023-04-11T04:56:06.494Z,11.77
2023-04-11T04:58:33.235Z,13.37
2023-04-11T05:00:59.999Z,12.50
2023-04-11T05:03:27.067Z,10.87
2023-04-11T05:05:54.095Z,13.63
2023-04-11T05:08:21.264Z,10.63
2023-04-11T05:10:47.978Z,11.07
2023-04-11T05:13:14.719Z,9.50
2023-04-11T05:15:47.547Z,9.33
2023-04-11T05:18:14.306Z,11.53
2023-04-11T05:20:40.989Z,10.30
2023-04-11T05:23:07.698Z,9.10
2023-04-11T05:25:34.520Z,7.53
2023-04-11T05:28:01.306Z,9.17
2023-04-11T05:30:28.066Z,7.77
2023-04-11T05:32:54.966Z,8.30
2023-04-11T05:35:21.789Z,6.63
2023-04-11T05:37:48.596Z,11.60
2023-04-11T05:40:16.352Z,7.30
2023-04-11T05:42:43.227Z,6.33
2023-04-11T05:45:10.620Z,7.33
2023-04-11T05:47:37.548Z,6.80
2023-04-11T05:50:04.555Z,6.97
2023-04-11T05:52:31.505Z,9.67
2023-04-11T05:54:58.193Z,7.53
2023-04-11T05:57:24.997Z,6.33
2023-04-11T05:59:53.135Z,6.97
2023-04-11T06:02:20.096Z,8.23
2023-04-11T06:04:46.988Z,5.80
2023-04-11T06:07:14.021Z,5.70
2023-04-11T06:09:42.649Z,8.60
2023-04-11T06:12:10.143Z,5.83
2023-04-11T06:14:39.535Z,5.83
2023-04-11T06:17:07.072Z,7.30
2023-04-11T06:19:33.990Z,5.13
2023-04-11T06:22:00.686Z,7.50
2023-04-11T06:24:38.967Z,6.27
2023-04-11T06:27:06.678Z,6.53
2023-04-11T06:29:33.421Z,8.47
2023-04-11T06:32:00.217Z,5.60
2023-04-11T06:34:27.154Z,8.20
2023-04-11T06:36:54.044Z,4.73
2023-04-11T06:39:20.834Z,5.90
2023-04-11T06:41:48.258Z,5.30
2023-04-11T06:44:15.520Z,4.97
2023-04-11T06:46:42.611Z,5.77
2023-04-11T06:49:10.478Z,6.00
2023-04-11T06:51:37.317Z,4.40
2023-04-11T06:54:06.462Z,5.30
2023-04-11T06:56:33.375Z,4.30
2023-04-11T06:59:00.188Z,4.43
2023-04-11T07:01:30.993Z,5.07
2023-04-11T07:03:59.509Z,4.07
2023-04-11T07:06:27.276Z,4.73
2023-04-11T07:08:54.170Z,3.63
2023-04-11T07:11:21.074Z,4.17
2023-04-11T07:13:47.853Z,3.93
2023-04-11T07:16:14.708Z,2.90
2023-04-11T07:18:41.622Z,5.20
2023-04-11T07:21:13.599Z,3.50
2023-04-11T07:23:41.017Z,2.47
2023-04-11T07:26:12.276Z,2.43
2023-04-11T07:28:45.837Z,3.67
2023-04-11T07:32:25.390Z,2.00
2023-04-11T07:35:20.176Z,2.00
2023-04-11T07:37:47.593Z,1.13
2023-04-11T07:40:14.774Z,2.23
2023-04-11T07:42:42.160Z,2.07
2023-04-11T07:45:09.390Z,2.63
2023-04-11T07:47:36.263Z,1.97
2023-04-11T07:50:04.581Z,2.40
2023-04-11T07:52:31.824Z,1.77
2023-04-11T07:54:58.605Z,2.20
2023-04-11T07:57:25.496Z,2.27
2023-04-11T07:59:52.287Z,1.30
2023-04-11T08:02:19.099Z,1.77
2023-04-11T08:04:46.051Z,1.40
2023-04-11T08:07:12.870Z,1.30
2023-04-11T08:09:39.768Z,1.00
2023-04-11T08:12:06.695Z,0.90
2023-04-11T08:14:33.684Z,1.20
2023-04-11T08:17:01.175Z,1.77
2023-04-11T08:19:28.446Z,1.23
2023-04-11T08:21:55.492Z,1.73
2023-04-11T08:24:22.462Z,3.73
2023-04-11T08:26:49.174Z,1.17
2023-04-11T08:29:15.983Z,2.57
2023-04-11T08:31:45.931Z,1.00
2023-04-11T08:34:13.432Z,1.23
2023-04-11T08:36:41.627Z,1.33
2023-04-11T08:39:08.852Z,1.30
2023-04-11T08:41:36.031Z,2.50
2023-04-11T08:44:02.927Z,2.23
2023-04-11T08:46:32.696Z,1.17
2023-04-11T08:49:01.116Z,1.10
2023-04-11T08:51:27.887Z,1.40
2023-04-11T08:54:00.666Z,2.43
2023-04-11T08:56:27.422Z,1.10
2023-04-11T08:58:54.141Z,1.20
2023-04-11T09:01:32.629Z,2.30
2023-04-11T09:04:05.649Z,1.17
2023-04-11T09:06:33.910Z,2.90
2023-04-11T09:09:05.389Z,5.67
2023-04-11T09:11:51.690Z,6.43
2023-04-11T09:14:18.711Z,12.83
2023-04-11T09:17:16.172Z,1.27
2023-04-11T09:19:43.444Z,1.33
2023-04-11T09:22:11.262Z,1.47
2023-04-11T09:24:38.374Z,1.83
2023-04-11T09:27:15.957Z,2.40
2023-04-11T09:29:47.969Z,4.60
2023-04-11T09:32:35.073Z,1.73
2023-04-11T09:35:20.530Z,1.43
2023-04-11T09:37:51.456Z,8.20
2023-04-11T09:40:20.809Z,7.83
2023-04-11T09:42:49.318Z,4.17
2023-04-11T09:45:21.397Z,4.13
2023-04-11T09:47:50.372Z,2.33
2023-04-11T09:50:17.889Z,2.50
2023-04-11T09:52:46.271Z,1.70
2023-04-11T09:55:15.310Z,3.10
2023-04-11T09:57:45.975Z,1.47
2023-04-11T10:00:18.865Z,2.00
2023-04-11T10:02:50.516Z,2.53
2023-04-11T10:05:18.671Z,2.70
2023-04-11T10:07:54.161Z,1.90
2023-04-11T10:10:23.178Z,1.70
2023-04-11T10:12:50.844Z,3.50
2023-04-11T10:15:18.813Z,1.93
2023-04-11T10:18:11.085Z,4.40
2023-04-11T10:20:48.434Z,1.83
2023-04-11T10:23:16.659Z,4.37
2023-04-11T10:26:01.746Z,2.43
2023-04-11T10:28:31.852Z,3.50
2023-04-11T10:31:01.865Z,4.77
2023-04-11T10:33:28.796Z,2.27
2023-04-11T10:36:05.988Z,10.27
2023-04-11T10:38:46.293Z,2.83
2023-04-11T10:41:34.152Z,4.83
2023-04-11T10:44:18.635Z,3.13
2023-04-11T10:46:54.265Z,2.67
2023-04-11T10:49:40.677Z,6.80
2023-04-11T10:52:23.307Z,2.77
2023-04-11T10:54:54.703Z,2.57
2023-04-11T10:57:23.159Z,3.63
2023-04-11T10:59:49.976Z,2.33
2023-04-11T11:02:17.116Z,4.23
2023-04-11T11:04:44.137Z,4.47
2023-04-11T11:07:15.817Z,3.47
2023-04-11T11:09:48.444Z,5.30
2023-04-11T11:12:16.847Z,2.57
2023-04-11T11:14:45.923Z,3.10
2023-04-11T11:17:14.563Z,3.37
2023-04-11T11:19:45.461Z,3.73
2023-04-11T11:22:25.876Z,2.50
2023-04-11T11:24:53.368Z,2.53
2023-04-11T11:27:24.756Z,2.80
2023-04-11T11:29:53.124Z,2.03
2023-04-11T11:32:26.644Z,2.57
2023-04-11T11:34:53.666Z,3.03
2023-04-11T11:37:21.567Z,4.53
2023-04-11T11:39:49.411Z,4.27
2023-04-11T11:42:16.484Z,3.60
2023-04-11T11:44:43.279Z,4.57
2023-04-11T11:47:17.655Z,7.00
2023-04-11T11:49:55.795Z,3.33
2023-04-11T11:52:36.636Z,3.63
2023-04-11T11:55:07.576Z,2.20
2023-04-11T11:57:46.506Z,3.03
2023-04-11T12:00:15.116Z,1.57
2023-04-11T12:02:45.072Z,3.87
2023-04-11T12:05:12.624Z,4.57
2023-04-11T12:07:40.130Z,3.00
2023-04-11T12:10:09.455Z,1.20
2023-04-11T12:12:41.153Z,3.17
2023-04-11T12:15:15.023Z,3.37
2023-04-11T12:17:42.072Z,3.23
2023-04-11T12:20:10.891Z,2.60
2023-04-11T12:22:38.461Z,3.03
2023-04-11T12:25:10.853Z,3.47
2023-04-11T12:27:39.825Z,3.13
2023-04-11T12:30:07.449Z,2.07
2023-04-11T12:32:34.412Z,3.10
2023-04-11T12:35:03.339Z,1.40
2023-04-11T12:37:30.878Z,3.57
2023-04-11T12:39:57.771Z,1.27
2023-04-11T12:42:27.227Z,1.80
2023-04-11T12:44:54.341Z,4.37
2023-04-11T12:47:21.191Z,3.73
2023-04-11T12:49:47.989Z,2.77
2023-04-11T12:52:14.867Z,3.40
2023-04-11T12:54:41.782Z,2.17
2023-04-11T12:57:08.598Z,5.70
2023-04-11T12:59:35.335Z,3.50
2023-04-11T13:02:02.234Z,3.77
2023-04-11T13:04:29.199Z,1.27
2023-04-11T13:07:00.980Z,1.23
2023-04-11T13:09:29.870Z,2.40
2023-04-11T13:11:58.107Z,2.67
2023-04-11T13:14:25.439Z,3.07
2023-04-11T13:16:52.374Z,2.43
2023-04-11T13:19:19.158Z,1.63
2023-04-11T13:21:46.025Z,3.73
2023-04-11T13:24:12.747Z,5.13
2023-04-11T13:26:39.994Z,3.27
2023-04-11T13:29:08.123Z,2.20
2023-04-11T13:31:34.888Z,4.50
2023-04-11T13:34:02.417Z,4.13
2023-04-11T13:36:29.671Z,5.53
2023-04-11T13:38:57.621Z,2.23
2023-04-11T13:41:25.617Z,1.80
2023-04-11T13:43:53.242Z,3.50
2023-04-11T13:46:22.000Z,4.00
2023-04-11T13:48:48.808Z,2.87
2023-04-11T13:51:15.607Z,2.00
2023-04-11T13:53:42.354Z,2.27
2023-04-11T13:56:09.198Z,3.87
2023-04-11T13:58:36.076Z,3.77
2023-04-11T14:01:02.839Z,2.00
2023-04-11T14:03:33.571Z,2.43
2023-04-11T14:06:01.722Z,2.10
2023-04-11T14:08:29.408Z,1.83
2023-04-11T14:10:56.441Z,1.67
2023-04-11T14:13:23.928Z,2.53
2023-04-11T14:16:04.923Z,4.70
2023-04-11T14:18:34.591Z,1.53
2023-04-11T14:21:01.981Z,2.77
2023-04-11T14:23:29.742Z,2.63
2023-04-11T14:25:56.934Z,3.90
2023-04-11T14:28:26.478Z,3.50
2023-04-11T14:30:53.832Z,4.07
2023-04-11T14:33:20.819Z,2.37
2023-04-11T14:35:47.631Z,0.70
2023-04-11T14:38:16.088Z,0.80
2023-04-11T14:40:43.114Z,4.67
2023-04-11T14:43:09.926Z,2.67
2023-04-11T14:45:37.133Z,4.17
2023-04-11T14:48:04.113Z,4.83
2023-04-11T14:50:31.052Z,1.87
2023-04-11T14:52:57.817Z,4.40
2023-04-11T14:55:24.556Z,2.87
2023-04-11T14:57:53.744Z,1.63
2023-04-11T15:00:22.065Z,1.20
2023-04-11T15:02:51.599Z,5.67
2023-04-11T15:05:19.878Z,1.67
2023-04-11T15:07:48.324Z,1.60
2023-04-11T15:10:16.697Z,1.50
2023-04-11T15:12:46.629Z,3.37
2023-04-11T15:15:14.137Z,2.80
2023-04-11T15:17:46.680Z,3.77
2023-04-11T15:20:17.096Z,2.67
2023-04-11T15:22:45.750Z,1.87
2023-04-11T15:25:14.651Z,4.10
2023-04-11T15:27:41.746Z,1.80
2023-04-11T15:30:10.197Z,2.27
2023-04-11T15:32:42.807Z,2.00
2023-04-11T15:35:10.180Z,1.73
2023-04-11T15:37:36.902Z,3.43
2023-04-11T15:40:06.395Z,2.57
2023-04-11T15:42:35.603Z,2.03
2023-04-11T15:45:02.769Z,2.40
2023-04-11T15:47:30.510Z,2.93
2023-04-11T15:49:59.195Z,0.97
2023-04-11T15:52:26.501Z,1.27
2023-04-11T15:54:53.271Z,1.60
2023-04-11T15:57:20.054Z,1.93
2023-04-11T15:59:46.902Z,1.93
2023-04-11T16:02:15.484Z,4.27
2023-04-11T16:04:46.370Z,2.87
2023-04-11T16:07:18.538Z,2.30
2023-04-11T16:09:45.886Z,1.83
2023-04-11T16:12:12.864Z,1.43
2023-04-11T16:14:39.574Z,4.20
2023-04-11T16:17:06.523Z,1.63
2023-04-11T16:19:33.398Z,3.57
2023-04-11T16:22:00.252Z,4.90
2023-04-11T16:24:29.343Z,1.90
2023-04-11T16:26:58.539Z,3.20
2023-04-11T16:29:25.514Z,1.97
2023-04-11T16:31:52.402Z,4.50
2023-04-11T16:34:19.318Z,2.33
2023-04-11T16:36:46.178Z,2.67
2023-04-11T16:39:13.714Z,4.63
2023-04-11T16:41:40.540Z,3.73
2023-04-11T16:44:11.525Z,4.27
2023-04-11T16:46:39.327Z,2.20
2023-04-11T16:49:06.035Z,3.60
2023-04-11T16:51:33.023Z,2.37
2023-04-11T16:53:59.901Z,3.73
2023-04-11T16:56:29.019Z,5.20
2023-04-11T16:58:56.210Z,2.60
2023-04-11T17:01:23.168Z,4.87
2023-04-11T17:03:52.550Z,3.20
2023-04-11T17:06:19.403Z,2.80
2023-04-11T17:08:46.303Z,5.37
2023-04-11T17:11:13.769Z,2.70
2023-04-11T17:13:42.193Z,2.57
2023-04-11T17:16:09.354Z,5.87
2023-04-11T17:18:36.130Z,3.97
2023-04-11T17:21:03.491Z,4.60
2023-04-11T17:23:41.967Z,5.30
2023-04-11T17:26:10.208Z,5.27
2023-04-11T17:28:36.978Z,4.70
2023-04-11T17:31:14.089Z,3.53
2023-04-11T17:33:41.491Z,2.67
2023-04-11T17:36:09.535Z,3.87
2023-04-11T17:38:38.128Z,6.20
2023-04-11T17:41:14.206Z,3.07
2023-04-11T17:43:42.188Z,5.07
2023-04-11T17:46:09.305Z,5.27
2023-04-11T17:48:36.646Z,5.43
2023-04-11T17:51:05.913Z,3.20
2023-04-11T17:53:33.131Z,4.17
2023-04-11T17:56:04.864Z,5.10
2023-04-11T17:58:32.046Z,4.43
2023-04-11T18:00:58.921Z,3.50
2023-04-11T18:03:26.324Z,4.10
2023-04-11T18:05:54.750Z,5.67
2023-04-11T18:08:28.724Z,3.57
2023-04-11T18:10:56.789Z,3.70
2023-04-11T18:13:23.524Z,3.73
2023-04-11T18:15:50.267Z,6.67
2023-04-11T18:18:17.184Z,3.27
2023-04-11T18:20:43.979Z,5.00
2023-04-11T18:23:10.697Z,6.40
2023-04-11T18:25:37.411Z,4.43
2023-04-11T18:28:04.215Z,3.97
2023-04-11T18:30:31.056Z,5.03
2023-04-11T18:32:57.864Z,4.80
2023-04-11T18:35:24.816Z,2.97
2023-04-11T18:37:51.959Z,6.70
2023-04-11T18:40:18.993Z,3.63
2023-04-11T18:42:49.962Z,6.70
2023-04-11T18:45:23.517Z,4.40
2023-04-11T18:47:51.186Z,3.30
2023-04-11T18:50:19.223Z,4.87
2023-04-11T18:52:48.953Z,4.03
2023-04-11T18:55:17.343Z,4.70
2023-04-11T18:57:47.336Z,5.07
2023-04-11T19:00:18.664Z,7.33
2023-04-11T19:02:47.151Z,4.13
2023-04-11T19:05:14.622Z,5.17
2023-04-11T19:07:45.905Z,6.83
2023-04-11T19:10:12.938Z,5.43
2023-04-11T19:12:40.902Z,4.97
2023-04-11T19:15:09.255Z,4.03
2023-04-11T19:17:36.856Z,6.57
2023-04-11T19:20:13.409Z,5.97
2023-04-11T19:22:43.519Z,4.37
2023-04-11T19:25:13.057Z,6.33
2023-04-11T19:27:41.916Z,5.60
2023-04-11T19:30:10.434Z,6.40
2023-04-11T19:32:40.961Z,5.67
2023-04-11T19:35:10.488Z,6.00
2023-04-11T19:37:37.831Z,7.53
2023-04-11T19:40:11.195Z,4.23
2023-04-11T19:42:39.990Z,5.37
2023-04-11T19:45:08.966Z,4.40
2023-04-11T19:47:35.901Z,5.33
2023-04-11T19:50:02.778Z,5.57
2023-04-11T19:52:29.538Z,5.97
2023-04-11T19:54:57.112Z,7.50
2023-04-11T19:57:26.580Z,8.20
2023-04-11T19:59:53.370Z,7.70
2023-04-11T20:02:20.352Z,6.30
2023-04-11T20:04:47.245Z,7.60
2023-04-11T20:07:14.577Z,10.63
2023-04-11T20:09:41.414Z,7.40
2023-04-11T20:12:08.299Z,9.67
2023-04-11T20:14:35.142Z,6.07
2023-04-11T20:17:02.232Z,9.70
2023-04-11T20:19:29.904Z,7.00
2023-04-11T20:21:56.663Z,3.73
2023-04-11T20:24:24.138Z,5.43
2023-04-11T20:26:51.449Z,7.80
2023-04-11T20:29:18.392Z,10.10
2023-04-11T20:31:45.477Z,8.80
2023-04-11T20:34:12.280Z,6.83
2023-04-11T20:36:39.222Z,10.73
2023-04-11T20:39:06.376Z,6.60
2023-04-11T20:41:33.248Z,7.93
2023-04-11T20:43:59.988Z,8.10
2023-04-11T20:46:30.098Z,5.80
2023-04-11T20:48:56.971Z,9.17
2023-04-11T20:51:23.836Z,12.30
2023-04-11T20:53:50.703Z,12.47
2023-04-11T20:56:17.570Z,8.20
2023-04-11T20:58:46.252Z,10.30
2023-04-11T21:01:13.809Z,7.30
2023-04-11T21:03:42.586Z,6.63
2023-04-11T21:06:10.424Z,8.27
2023-04-11T21:08:37.942Z,7.60
2023-04-11T21:11:05.780Z,7.03
2023-04-11T21:13:32.584Z,5.30
2023-04-11T21:15:59.334Z,7.30
2023-04-11T21:18:26.176Z,8.03
2023-04-11T21:20:52.928Z,6.90
2023-04-11T21:23:19.791Z,7.83
2023-04-11T21:25:47.169Z,12.40
2023-04-11T21:28:14.104Z,8.73
2023-04-11T21:30:42.523Z,8.53
2023-04-11T21:33:10.882Z,5.83
2023-04-11T21:35:37.630Z,12.87
2023-04-11T21:38:04.459Z,9.40
2023-04-11T21:40:31.383Z,8.03
2023-04-11T21:42:58.104Z,8.40
2023-04-11T21:45:24.835Z,11.53
2023-04-11T21:47:52.035Z,6.67
2023-04-11T21:50:19.168Z,7.33
2023-04-11T21:52:46.658Z,7.13
2023-04-11T21:55:15.050Z,6.97
2023-04-11T21:57:41.913Z,6.50
2023-04-11T22:00:11.136Z,7.63
2023-04-11T22:02:39.026Z,10.10
2023-04-11T22:05:08.906Z,5.10
2023-04-11T22:07:48.803Z,6.73
2023-04-11T22:10:22.693Z,9.77
2023-04-11T22:12:50.370Z,9.83
2023-04-11T22:15:18.625Z,9.70
2023-04-11T22:17:46.343Z,11.03
2023-04-11T22:20:13.551Z,8.43
2023-04-11T22:22:40.283Z,10.50
2023-04-11T22:25:08.597Z,8.43
2023-04-11T22:27:35.373Z,7.70
2023-04-11T22:30:02.661Z,8.47
2023-04-11T22:32:30.424Z,11.07
2023-04-11T22:34:57.201Z,9.53
2023-04-11T22:37:23.910Z,8.30
2023-04-11T22:39:50.616Z,9.80
2023-04-11T22:42:17.344Z,11.90
2023-04-11T22:44:44.111Z,12.60
2023-04-11T22:47:13.788Z,14.70
2023-04-11T22:49:40.780Z,10.17
2023-04-11T22:52:08.793Z,10.37
2023-04-11T22:54:35.630Z,9.40
2023-04-11T22:57:02.549Z,11.17
2023-04-11T22:59:29.300Z,10.67
2023-04-11T23:01:56.110Z,8.23
2023-04-11T23:04:23.044Z,8.23
2023-04-11T23:06:50.734Z,6.77
2023-04-11T23:09:18.470Z,9.33
2023-04-11T23:11:46.860Z,7.93
2023-04-11T23:14:15.547Z,8.37
2023-04-11T23:16:43.524Z,9.13
2023-04-11T23:19:10.990Z,8.17
2023-04-11T23:21:38.131Z,7.33
2023-04-11T23:24:07.076Z,7.03
2023-04-11T23:26:34.076Z,10.83
2023-04-11T23:29:02.991Z,8.60
2023-04-11T23:31:31.705Z,7.37
2023-04-11T23:33:58.718Z,15.43
2023-04-11T23:36:28.133Z,9.47
2023-04-11T23:38:55.263Z,13.77
2023-04-11T23:41:22.036Z,9.07
2023-04-11T23:43:48.901Z,12.47
2023-04-11T23:46:17.172Z,11.90
2023-04-11T23:48:44.425Z,8.83
2023-04-11T23:51:11.128Z,10.53
2023-04-11T23:53:37.838Z,7.33
2023-04-11T23:56:04.993Z,9.37
2023-04-11T23:58:31.751Z,9.07
